Time;durP1;ratioP1;P1;durP2;ratioP2;P2;SDS_P1;SDS_P2;PMS_P1;PMS_P2;Temp;Humidity;BMP_temperature;BMP_pressure;BME280_temperature;BME280_humidity;BME280_pressure;Samples;Min_cycle;Max_cycle;Signal;HPM_P1;HPM_P2
2023/11/05 00:01:18;;;;;;;1.90;0.73;;;;;;;13.84;75.93;95812.66;5091710;28;20021;-48
2023/11/05 00:03:45;;;;;;;3.85;0.98;;;;;;;13.79;80.06;95804.88;5091815;28;20062;-48
2023/11/05 00:06:11;;;;;;;2.40;0.90;;;;;;;13.76;81.00;95806.25;5091774;28;20461;-48
2023/11/05 00:08:37;;;;;;;7.40;1.15;;;;;;;13.80;80.73;95814.31;5091719;28;20501;-48
2023/11/05 00:11:04;;;;;;;3.72;1.08;;;;;;;13.85;78.79;95805.56;5094923;28;20028;-48
2023/11/05 00:13:29;;;;;;;3.20;1.15;;;;;;;13.90;76.68;95805.44;5094492;28;20123;-48
2023/11/05 00:15:55;;;;;;;2.42;1.08;;;;;;;13.91;78.31;95812.31;5095813;28;20561;-48
2023/11/05 00:18:21;;;;;;;4.18;1.50;;;;;;;13.89;77.76;95788.88;5095558;28;20064;-48
2023/11/05 00:20:47;;;;;;;7.00;2.08;;;;;;;13.92;76.43;95792.75;5094464;28;20050;-48
2023/11/05 00:23:13;;;;;;;3.30;0.60;;;;;;;13.94;72.57;95777.44;5095610;28;20505;-48
2023/11/05 00:25:39;;;;;;;3.05;1.10;;;;;;;14.00;73.60;95773.63;5095651;28;20024;-48
2023/11/05 00:28:05;;;;;;;3.25;1.20;;;;;;;14.03;71.83;95778.31;5095589;28;20095;-48
2023/11/05 00:30:31;;;;;;;13.23;6.53;;;;;;;14.07;70.12;95775.88;5095515;28;20111;-48
2023/11/05 00:32:57;;;;;;;2.97;1.20;;;;;;;14.06;70.23;95775.06;5095737;28;20020;-48
2023/11/05 00:35:22;;;;;;;4.32;0.85;;;;;;;14.09;69.97;95782.41;5094083;28;20409;-48
2023/11/05 00:37:48;;;;;;;2.75;1.38;;;;;;;14.16;73.28;95795.97;5095397;28;20020;-48
2023/11/05 00:40:14;;;;;;;4.20;1.10;;;;;;;14.19;74.18;95805.16;5095323;28;20016;-48
2023/11/05 00:42:39;;;;;;;3.13;0.80;;;;;;;14.21;72.24;95802.25;5095192;28;20028;-48
2023/11/05 00:45:08;;;;;;;2.85;1.13;;;;;;;14.23;71.20;95798.22;5095272;28;20135;-48
2023/11/05 00:47:34;;;;;;;3.40;0.90;;;;;;;14.26;68.01;95800.25;5095144;28;20537;-48
2023/11/05 00:50:00;;;;;;;2.47;0.90;;;;;;;14.29;66.91;95783.84;5095144;28;20024;-48
2023/11/05 00:52:25;;;;;;;20.40;13.13;;;;;;;14.37;65.27;95779.75;5093713;28;20069;-48
2023/11/05 00:54:51;;;;;;;5.05;4.00;;;;;;;14.41;62.24;95779.91;5095277;28;20482;-48
2023/11/05 00:57:17;;;;;;;11.45;8.80;;;;;;;14.38;66.61;95787.34;5093673;28;20509;-48
2023/11/05 00:59:43;;;;;;;16.88;12.63;;;;;;;14.35;67.72;95793.22;5094998;28;20107;-48
2023/11/05 01:02:09;;;;;;;6.88;4.93;;;;;;;14.37;68.78;95796.34;5094857;28;20020;-48
2023/11/05 01:04:35;;;;;;;4.15;1.58;;;;;;;14.36;69.09;95802.69;5094910;28;20050;-49
2023/11/05 01:07:01;;;;;;;6.18;4.70;;;;;;;14.36;68.86;95794.78;5093492;28;20028;-49
2023/11/05 01:09:27;;;;;;;24.95;20.73;;;;;;;14.37;68.34;95780.53;5094840;28;20028;-48
2023/11/05 01:11:53;;;;;;;7.18;5.20;;;;;;;14.44;61.99;95785.38;5094974;28;20467;-48
2023/11/05 01:14:18;;;;;;;2.63;1.42;;;;;;;14.45;66.80;95784.31;5094681;28;20016;-48
2023/11/05 01:16:44;;;;;;;2.50;0.98;;;;;;;14.43;67.89;95786.47;5093351;28;20028;-48
2023/11/05 01:19:10;;;;;;;3.72;0.63;;;;;;;14.42;70.77;95773.56;5094362;28;20119;-48
2023/11/05 01:21:35;;;;;;;1.58;0.50;;;;;;;14.42;72.04;95776.22;5094471;28;20064;-49
2023/11/05 01:24:01;;;;;;;2.33;0.60;;;;;;;14.38;68.92;95774.16;5094555;28;20535;-48
2023/11/05 01:26:27;;;;;;;2.75;0.60;;;;;;;14.41;69.62;95778.09;5094363;28;20020;-48
2023/11/05 01:28:53;;;;;;;1.45;0.60;;;;;;;14.43;69.80;95809.44;5094726;28;20153;-48
2023/11/05 01:31:18;;;;;;;4.13;0.85;;;;;;;14.49;68.24;95798.50;5093100;28;20024;-48
2023/11/05 01:33:44;;;;;;;3.00;0.70;;;;;;;14.54;70.97;95806.28;5094318;28;20016;-48
2023/11/05 01:36:10;;;;;;;2.03;0.70;;;;;;;14.53;69.56;95812.66;5092933;28;20028;-48
2023/11/05 01:38:36;;;;;;;3.75;1.10;;;;;;;14.52;71.64;95808.44;5094222;28;20039;-48
2023/11/05 01:41:01;;;;;;;3.05;0.75;;;;;;;14.55;70.42;95801.81;5092835;28;20122;-49
2023/11/05 01:43:27;;;;;;;1.35;0.57;;;;;;;14.55;68.68;95805.22;5094093;28;20016;-48
2023/11/05 01:45:53;;;;;;;4.55;0.57;;;;;;;14.56;67.99;95808.66;5092774;28;20481;-48
2023/11/05 01:48:20;;;;;;;2.70;1.75;;;;;;;14.50;72.28;95804.53;5092727;28;20023;-49
2023/11/05 01:50:47;;;;;;;2.45;0.70;;;;;;;14.51;70.27;95798.97;5092691;28;20020;-48
2023/11/05 01:53:14;;;;;;;2.47;1.08;;;;;;;14.48;71.05;95802.19;5093947;28;20498;-48
2023/11/05 01:55:39;;;;;;;1.38;0.47;;;;;;;14.49;67.65;95797.72;5092564;28;20085;-49
2023/11/05 01:58:06;;;;;;;3.38;0.88;;;;;;;14.47;69.93;95800.66;5093864;28;20686;-48
2023/11/05 02:00:33;;;;;;;1.45;0.70;;;;;;;14.46;69.20;95819.41;5092510;28;20024;-48
2023/11/05 02:02:59;;;;;;;1.52;0.50;;;;;;;14.45;68.43;95791.47;5092391;28;20535;-48
2023/11/05 02:05:25;;;;;;;2.50;0.80;;;;;;;14.47;68.75;95819.13;5092365;28;20028;-48
2023/11/05 02:07:51;;;;;;;2.05;0.95;;;;;;;14.54;70.55;95802.88;5093710;28;20023;-48
2023/11/05 02:10:17;;;;;;;1.92;1.15;;;;;;;14.59;69.23;95802.81;5092324;28;20027;-49
2023/11/05 02:13:03;;;;;;;4.47;1.33;;;;;;;14.64;64.33;95796.63;5092294;28;20024;-48
2023/11/05 02:15:29;;;;;;;1.27;0.52;;;;;;;14.64;68.23;95807.97;5093219;28;20067;-48
2023/11/05 02:17:55;;;;;;;3.83;0.60;;;;;;;14.66;66.56;95797.09;5091949;28;20075;-49
2023/11/05 02:20:21;;;;;;;1.98;0.77;;;;;;;14.91;68.95;95806.31;5092106;28;20490;-48
2023/11/05 02:22:50;;;;;;;1.27;0.50;;;;;;;15.03;69.48;95813.69;5092013;28;20032;-49
2023/11/05 02:25:19;;;;;;;2.30;0.50;;;;;;;15.02;67.29;95809.50;5093298;28;20060;-48
2023/11/05 02:27:51;;;;;;;1.55;0.50;;;;;;;14.99;69.16;95810.91;5093223;28;20063;-48
2023/11/05 02:30:18;;;;;;;1.98;0.70;;;;;;;14.97;66.41;95820.97;5091886;28;20028;-48
2023/11/05 02:32:46;;;;;;;2.90;0.50;;;;;;;14.93;66.28;95818.16;5092464;28;20077;-48
2023/11/05 02:35:12;;;;;;;3.88;0.82;;;;;;;14.88;65.37;95809.56;5091798;28;20030;-48
2023/11/05 02:37:39;;;;;;;2.97;0.80;;;;;;;14.84;66.67;95804.09;5091807;28;20027;-48
2023/11/05 02:40:09;;;;;;;3.10;1.98;;;;;;;14.84;67.26;95803.31;5091993;28;20051;-48
2023/11/05 02:42:36;;;;;;;2.70;0.50;;;;;;;14.85;66.22;95810.13;5091748;28;20498;-48
2023/11/05 02:45:03;;;;;;;2.67;0.77;;;;;;;14.77;66.94;95817.72;5092992;28;20103;-48
2023/11/05 02:47:29;;;;;;;2.58;0.60;;;;;;;14.76;65.80;95820.63;5091614;28;20036;-49
2023/11/05 02:49:55;;;;;;;3.72;0.80;;;;;;;14.77;67.51;95843.34;5091563;28;20054;-48
2023/11/05 02:52:22;;;;;;;2.95;0.57;;;;;;;14.74;67.15;95828.06;5092740;28;20043;-49
2023/11/05 02:54:48;;;;;;;2.83;0.55;;;;;;;14.73;68.54;95829.94;5092852;28;20023;-48
2023/11/05 02:57:16;;;;;;;0.68;0.30;;;;;;;14.73;66.78;95813.34;5091390;28;20028;-48
2023/11/05 02:59:43;;;;;;;3.30;0.70;;;;;;;14.68;65.48;95816.84;5092742;28;20020;-48
2023/11/05 03:02:09;;;;;;;2.85;1.73;;;;;;;14.59;66.59;95813.34;5091186;28;20035;-48
2023/11/05 03:04:34;;;;;;;4.63;1.13;;;;;;;14.57;65.94;95804.97;5091356;28;20493;-48
2023/11/05 03:07:01;;;;;;;2.53;0.70;;;;;;;14.53;66.06;95820.56;5091297;28;20081;-48
2023/11/05 03:09:27;;;;;;;5.47;0.90;;;;;;;14.45;68.48;95816.00;5091128;28;20157;-48
2023/11/05 03:11:53;;;;;;;2.40;0.60;;;;;;;14.55;67.27;95841.38;5091189;28;20110;-48
2023/11/05 03:14:19;;;;;;;5.07;0.85;;;;;;;14.52;68.69;95823.50;5092412;28;20071;-49
2023/11/05 03:16:46;;;;;;;1.88;0.70;;;;;;;14.56;68.16;95850.88;5091045;28;20425;-49
2023/11/05 03:19:13;;;;;;;2.97;1.05;;;;;;;14.60;66.13;95841.31;5090892;28;20405;-48
2023/11/05 03:21:40;;;;;;;4.43;0.80;;;;;;;14.62;66.10;95843.66;5092201;28;20035;-49
2023/11/05 03:24:07;;;;;;;2.22;0.57;;;;;;;14.67;61.87;95848.81;5091084;28;20031;-48
2023/11/05 03:26:34;;;;;;;2.20;0.70;;;;;;;14.57;66.28;95855.09;5090880;28;20043;-48
2023/11/05 03:29:00;;;;;;;1.90;1.08;;;;;;;14.57;64.52;95849.81;5090900;28;20020;-48
2023/11/05 03:31:26;;;;;;;2.85;0.82;;;;;;;14.54;64.97;95837.19;5090792;28;20485;-48
2023/11/05 03:33:51;;;;;;;3.83;2.17;;;;;;;14.48;65.49;95841.78;5090833;28;20112;-48
2023/11/05 03:36:17;;;;;;;4.13;0.60;;;;;;;14.49;65.04;95856.53;5092089;28;20031;-48
2023/11/05 03:38:43;;;;;;;2.33;0.75;;;;;;;14.51;62.17;95877.38;5092024;28;20477;-48
2023/11/05 03:41:09;;;;;;;2.22;0.77;;;;;;;14.35;62.14;95846.00;5090670;28;20039;-48
2023/11/05 03:43:35;;;;;;;4.13;3.15;;;;;;;14.23;63.15;95868.69;5090642;28;20043;-48
2023/11/05 03:46:04;;;;;;;3.63;2.80;;;;;;;14.17;65.20;95866.13;5090662;28;20057;-48
2023/11/05 03:48:30;;;;;;;6.35;1.10;;;;;;;14.14;65.85;95853.50;5090647;28;20170;-48
2023/11/05 03:50:56;;;;;;;3.22;0.60;;;;;;;14.14;64.26;95866.69;5090577;28;20140;-48
2023/11/05 03:53:22;;;;;;;3.45;1.02;;;;;;;14.15;64.93;95860.34;5073792;28;20458;-48
2023/11/05 03:55:48;;;;;;;5.07;1.83;;;;;;;14.09;65.68;95866.81;5090552;28;20062;-48
2023/11/05 03:58:14;;;;;;;4.68;2.42;;;;;;;14.12;66.35;95870.72;5090503;28;20512;-48
2023/11/05 04:00:40;;;;;;;4.32;1.30;;;;;;;14.12;64.57;95878.63;5091861;28;20059;-48
2023/11/05 04:03:06;;;;;;;5.72;1.20;;;;;;;14.10;64.12;95841.97;5090416;28;20024;-48
2023/11/05 04:05:31;;;;;;;6.45;1.13;;;;;;;14.06;64.62;95882.41;5090456;28;20028;-49
2023/11/05 04:07:57;;;;;;;3.80;1.05;;;;;;;14.10;65.96;95886.81;5090483;28;20096;-48
2023/11/05 04:10:24;;;;;;;6.35;1.15;;;;;;;14.12;64.51;95884.66;5090345;28;20115;-48
2023/11/05 04:12:50;;;;;;;3.95;0.90;;;;;;;14.06;65.31;95885.06;5090480;28;20455;-48
2023/11/05 04:15:16;;;;;;;4.25;1.02;;;;;;;14.04;64.52;95909.06;5090364;28;20043;-48
2023/11/05 04:17:41;;;;;;;3.92;1.08;;;;;;;13.98;64.61;95912.88;5090049;28;20123;-48
2023/11/05 04:20:08;;;;;;;5.30;1.17;;;;;;;14.07;65.09;95913.00;5090261;28;20024;-48
2023/11/05 04:22:34;;;;;;;5.43;2.78;;;;;;;14.15;64.98;95915.75;5091576;28;20027;-48
2023/11/05 04:25:01;;;;;;;3.40;1.20;;;;;;;14.19;63.08;95906.19;5091675;28;20020;-48
2023/11/05 04:27:27;;;;;;;2.22;0.85;;;;;;;14.16;62.92;95898.84;5091569;28;20024;-48
2023/11/05 04:29:53;;;;;;;3.90;1.02;;;;;;;14.10;64.03;95886.81;5090261;28;20022;-48
2023/11/05 04:32:18;;;;;;;5.57;0.98;;;;;;;14.10;64.08;95894.72;5090182;28;20119;-48
2023/11/05 04:34:45;;;;;;;3.50;0.80;;;;;;;14.22;62.07;95888.19;5090191;28;20028;-48
2023/11/05 04:37:11;;;;;;;3.60;1.15;;;;;;;14.20;62.53;95893.75;5073415;28;20032;-48
2023/11/05 04:39:37;;;;;;;3.65;1.02;;;;;;;14.16;61.26;95900.69;5090181;28;20093;-48
2023/11/05 04:42:06;;;;;;;3.22;1.00;;;;;;;14.14;60.91;95881.75;5091334;28;20507;-48
2023/11/05 04:44:34;;;;;;;3.92;1.05;;;;;;;14.09;62.54;95901.09;5091445;28;20027;-48
2023/11/05 04:47:00;;;;;;;2.83;1.08;;;;;;;14.14;60.67;95922.06;5091395;28;20493;-48
2023/11/05 04:49:28;;;;;;;3.15;1.35;;;;;;;14.23;60.30;95900.34;5091402;28;20435;-48
2023/11/05 04:51:53;;;;;;;7.13;1.80;;;;;;;14.24;60.24;95894.75;5090148;28;20516;-48
2023/11/05 04:54:19;;;;;;;3.58;0.93;;;;;;;14.35;60.26;95921.72;5089995;28;20119;-49
2023/11/05 04:56:45;;;;;;;5.25;1.10;;;;;;;14.39;58.91;95918.22;5092226;28;20508;-48
2023/11/05 04:59:11;;;;;;;3.25;0.98;;;;;;;14.35;56.82;95919.09;5093694;28;20024;-48
2023/11/05 05:01:37;;;;;;;8.90;1.58;;;;;;;14.24;57.13;95917.72;5094879;28;20024;-48
2023/11/05 05:04:03;;;;;;;3.13;1.02;;;;;;;14.16;57.05;95925.22;5095009;28;20024;-48
2023/11/05 05:06:29;;;;;;;4.13;2.95;;;;;;;14.13;57.13;95925.81;5093551;28;20032;-49
2023/11/05 05:08:55;;;;;;;2.95;1.00;;;;;;;13.98;57.97;95923.41;5093545;28;20141;-48
2023/11/05 05:11:21;;;;;;;9.88;2.88;;;;;;;13.95;57.41;95924.78;5093473;28;20036;-49
2023/11/05 05:13:47;;;;;;;6.85;2.63;;;;;;;13.87;58.30;95914.13;5093443;28;20020;-49
2023/11/05 05:16:19;;;;;;;1.67;0.60;;;;;;;13.76;58.59;95935.41;5093335;28;20107;-48
2023/11/05 05:18:45;;;;;;;1.27;1.08;;;;;;;13.74;57.28;95921.72;5094520;28;20047;-48
2023/11/05 05:21:11;;;;;;;3.55;0.60;;;;;;;13.66;58.13;95917.13;5094562;28;20028;-48
2023/11/05 05:23:37;;;;;;;2.85;0.82;;;;;;;13.61;59.06;95938.25;5094478;28;20393;-49
2023/11/05 05:26:03;;;;;;;2.90;1.00;;;;;;;13.68;59.03;95940.53;5093113;28;20024;-48
2023/11/05 05:28:29;;;;;;;1.25;0.50;;;;;;;13.77;57.75;95941.44;5093111;28;20028;-48
2023/11/05 05:30:55;;;;;;;4.10;0.85;;;;;;;13.74;58.99;95953.34;5093402;28;20401;-48
2023/11/05 05:33:22;;;;;;;6.13;1.77;;;;;;;13.78;59.28;95954.34;5076160;28;20024;-48
2023/11/05 05:35:48;;;;;;;2.35;0.73;;;;;;;13.76;58.29;95938.03;5094309;28;20489;-48
2023/11/05 05:38:15;;;;;;;5.95;1.13;;;;;;;13.73;58.64;95951.00;5094320;28;20035;-48
2023/11/05 05:40:41;;;;;;;4.82;2.58;;;;;;;13.72;58.15;95960.75;5094244;28;20020;-48
2023/11/05 05:43:07;;;;;;;3.47;2.10;;;;;;;13.75;57.83;95978.63;5093091;28;20031;-48
2023/11/05 05:45:32;;;;;;;4.18;0.80;;;;;;;13.74;57.95;95961.25;5092821;28;20024;-48
2023/11/05 05:47:58;;;;;;;2.92;0.80;;;;;;;13.71;58.02;95966.31;5092822;28;20024;-48
2023/11/05 05:50:24;;;;;;;3.35;1.10;;;;;;;13.60;57.26;95984.13;5092697;28;20040;-48
2023/11/05 05:52:50;;;;;;;1.70;0.77;;;;;;;13.44;58.52;95980.94;5092733;28;20131;-48
2023/11/05 05:55:16;;;;;;;4.15;0.70;;;;;;;13.41;59.84;95963.06;5092622;28;20031;-48
2023/11/05 05:57:42;;;;;;;3.22;1.08;;;;;;;13.53;59.49;95983.72;5092583;28;20489;-48
2023/11/05 06:00:10;;;;;;;3.10;0.75;;;;;;;13.72;58.42;95981.03;5092521;28;20028;-48
2023/11/05 06:02:36;;;;;;;5.40;1.10;;;;;;;13.75;58.14;95986.53;5092368;28;20032;-48
2023/11/05 06:05:02;;;;;;;3.22;1.33;;;;;;;13.73;57.32;96008.97;5093724;28;20043;-48
2023/11/05 06:07:31;;;;;;;4.07;0.82;;;;;;;13.75;57.72;95991.81;5091332;28;20020;-48
2023/11/05 06:09:58;;;;;;;2.53;1.10;;;;;;;13.69;57.74;95998.22;5093571;28;20020;-48
2023/11/05 06:12:24;;;;;;;3.55;0.80;;;;;;;13.64;57.84;96029.91;5092188;28;20040;-48
2023/11/05 06:14:50;;;;;;;2.78;1.67;;;;;;;13.56;58.60;96020.00;5093566;28;20024;-49
2023/11/05 06:17:16;;;;;;;3.30;0.95;;;;;;;13.52;59.88;96006.66;5091899;28;20040;-48
2023/11/05 06:19:42;;;;;;;1.35;0.70;;;;;;;13.59;59.05;96027.38;5093589;28;20062;-48
2023/11/05 06:22:08;;;;;;;3.25;0.80;;;;;;;13.59;58.92;96014.19;5093328;28;20103;-48
2023/11/05 06:24:35;;;;;;;3.00;1.17;;;;;;;13.59;58.23;96043.94;5092035;28;20174;-48
2023/11/05 06:27:01;;;;;;;1.98;0.88;;;;;;;13.65;59.20;96049.16;5093349;28;20016;-48
2023/11/05 06:29:28;;;;;;;5.55;3.08;;;;;;;13.76;58.54;96063.75;5091985;28;20407;-48
2023/11/05 06:31:53;;;;;;;2.08;1.35;;;;;;;13.76;59.14;96046.09;5093450;28;20032;-48
2023/11/05 06:34:19;;;;;;;1.77;0.60;;;;;;;13.75;58.75;96070.88;5093232;28;20066;-48
2023/11/05 06:36:59;;;;;;;1.98;0.63;;;;;;;13.77;58.15;96073.25;5091855;28;20378;-48
2023/11/05 06:39:27;;;;;;;4.60;1.55;;;;;;;13.76;58.44;96047.94;5091819;28;20032;-48
2023/11/05 06:41:53;;;;;;;4.30;0.80;;;;;;;13.64;58.85;96068.66;5092938;28;20493;-48
2023/11/05 06:44:19;;;;;;;1.98;0.68;;;;;;;13.63;58.97;96075.03;5092980;28;20028;-48
2023/11/05 06:46:45;;;;;;;2.30;0.70;;;;;;;13.72;58.33;96082.00;5091643;28;20028;-48
2023/11/05 06:49:11;;;;;;;2.40;0.77;;;;;;;13.78;57.90;96104.59;5091620;28;20077;-48
2023/11/05 06:51:37;;;;;;;19.55;17.77;;;;;;;13.79;57.89;96113.28;5091510;28;20020;-48
2023/11/05 06:54:03;;;;;;;3.33;0.90;;;;;;;13.81;57.93;96119.06;5091546;28;20028;-48
2023/11/05 06:56:29;;;;;;;3.25;1.23;;;;;;;13.79;58.44;96129.09;5091506;28;20554;-48
2023/11/05 06:58:55;;;;;;;3.65;0.80;;;;;;;13.88;59.34;96126.59;5091520;28;20024;-48
2023/11/05 07:01:21;;;;;;;2.88;1.00;;;;;;;13.96;58.57;96089.03;5091374;28;20036;-49
2023/11/05 07:03:46;;;;;;;3.60;1.02;;;;;;;14.03;57.43;96130.91;5092685;28;20092;-48
2023/11/05 07:06:13;;;;;;;2.47;0.93;;;;;;;14.07;57.97;96129.25;5092654;28;20031;-48
2023/11/05 07:08:39;;;;;;;3.28;1.67;;;;;;;14.12;57.55;96166.09;5091339;28;20058;-48
2023/11/05 07:11:06;;;;;;;5.60;4.10;;;;;;;14.05;57.09;96144.59;5091210;28;20024;-48
2023/11/05 07:13:32;;;;;;;2.35;1.30;;;;;;;14.09;57.49;96170.09;5091208;28;20031;-48
2023/11/05 07:15:59;;;;;;;2.83;1.00;;;;;;;14.12;58.07;96172.16;5092703;28;20031;-49
2023/11/05 07:18:24;;;;;;;5.32;0.77;;;;;;;14.21;57.29;96163.63;5090539;28;20044;-48
2023/11/05 07:20:50;;;;;;;3.33;0.80;;;;;;;14.24;57.49;96194.69;5091059;28;20020;-48
2023/11/05 07:23:16;;;;;;;4.32;0.75;;;;;;;14.23;57.21;96187.84;5092252;28;20493;-48
2023/11/05 07:25:43;;;;;;;3.22;1.85;;;;;;;14.21;57.26;96179.44;5090987;28;20578;-48
2023/11/05 07:28:09;;;;;;;2.58;1.48;;;;;;;14.17;56.92;96195.06;5090914;28;20035;-48
2023/11/05 07:30:35;;;;;;;2.67;0.90;;;;;;;14.25;56.89;96199.69;5090862;28;20059;-49
2023/11/05 07:33:05;;;;;;;3.65;0.77;;;;;;;14.26;56.28;96206.50;5092223;28;20544;-48
2023/11/05 07:35:33;;;;;;;1.33;0.52;;;;;;;14.19;56.23;96235.91;5092175;28;20027;-48
2023/11/05 07:37:59;;;;;;;2.75;1.05;;;;;;;14.17;57.66;96238.03;5090797;28;20032;-48
2023/11/05 07:40:24;;;;;;;2.97;0.90;;;;;;;14.21;56.59;96243.53;5090713;28;20024;-48
2023/11/05 07:42:50;;;;;;;4.95;2.22;;;;;;;14.24;57.86;96213.16;5091932;28;20035;-48
2023/11/05 07:45:16;;;;;;;4.90;1.15;;;;;;;14.27;57.99;96223.94;5090663;28;20069;-48
2023/11/05 07:47:42;;;;;;;1.58;0.80;;;;;;;14.40;56.64;96222.44;5090660;28;20039;-48
2023/11/05 07:50:12;;;;;;;5.75;1.52;;;;;;;14.43;56.56;96248.25;5092186;28;20019;-48
2023/11/05 07:52:40;;;;;;;3.72;1.25;;;;;;;14.44;56.17;96281.47;5092120;28;20032;-48
2023/11/05 07:55:07;;;;;;;1.95;1.20;;;;;;;14.41;56.41;96276.78;5091843;28;20103;-48
2023/11/05 07:57:38;;;;;;;4.03;0.75;;;;;;;14.39;56.58;96286.84;5090576;28;20035;-49
2023/11/05 08:00:07;;;;;;;2.42;1.05;;;;;;;14.43;56.91;96276.47;5090518;28;20031;-48
2023/11/05 08:02:33;;;;;;;1.98;0.95;;;;;;;14.44;56.30;96251.66;5091725;28;20539;-48
2023/11/05 08:04:59;;;;;;;3.83;0.80;;;;;;;14.38;56.84;96275.47;5090483;28;20023;-48
2023/11/05 08:07:26;;;;;;;1.90;0.50;;;;;;;14.42;56.21;96296.03;5090523;28;20024;-49
2023/11/05 08:09:53;;;;;;;1.45;1.08;;;;;;;14.37;56.12;96312.72;5091819;28;20024;-48
2023/11/05 08:12:20;;;;;;;1.35;0.60;;;;;;;14.45;55.88;96324.50;5091997;28;20401;-48
2023/11/05 08:14:46;;;;;;;3.30;1.10;;;;;;;14.43;56.91;96318.69;5091717;28;20025;-48
2023/11/05 08:17:12;;;;;;;4.18;1.00;;;;;;;14.43;57.37;96319.50;5091425;28;20528;-49
2023/11/05 08:19:37;;;;;;;4.05;1.40;;;;;;;14.52;57.09;96325.72;5090407;28;20490;-49
2023/11/05 08:22:03;;;;;;;3.60;1.65;;;;;;;14.63;56.99;96333.53;5090247;28;20169;-48
2023/11/05 08:24:29;;;;;;;4.22;0.90;;;;;;;14.70;55.77;96350.59;5091672;28;20032;-49
2023/11/05 08:26:54;;;;;;;3.88;0.80;;;;;;;14.64;55.85;96357.00;5090361;28;20081;-48
2023/11/05 08:29:20;;;;;;;6.15;1.70;;;;;;;14.68;55.69;96365.16;5091596;28;20024;-48
2023/11/05 08:31:46;;;;;;;4.60;0.95;;;;;;;14.73;55.92;96371.16;5094186;28;20024;-49
2023/11/05 08:34:13;;;;;;;2.65;0.93;;;;;;;14.76;55.44;96396.19;5095775;28;20079;-48
2023/11/05 08:36:38;;;;;;;4.15;0.95;;;;;;;14.72;56.20;96369.56;5094525;28;20081;-48
2023/11/05 08:39:05;;;;;;;5.07;2.88;;;;;;;14.71;55.96;96393.63;5095418;28;20374;-48
2023/11/05 08:41:31;;;;;;;3.38;0.98;;;;;;;14.67;56.01;96403.16;5095465;28;20393;-49
2023/11/05 08:43:57;;;;;;;2.67;0.70;;;;;;;14.52;56.93;96399.59;5095297;28;20118;-48
2023/11/05 08:46:23;;;;;;;5.57;1.83;;;;;;;14.50;57.51;96414.16;5095292;28;20023;-48
2023/11/05 08:48:49;;;;;;;2.75;0.80;;;;;;;14.62;56.41;96409.28;5095317;28;20024;-48
2023/11/05 08:51:28;;;;;;;5.35;1.38;;;;;;;14.63;57.04;96415.34;5095148;28;20024;-48
2023/11/05 08:53:54;;;;;;;3.03;1.33;;;;;;;14.65;57.40;96440.44;5095226;28;20062;-48
2023/11/05 08:56:23;;;;;;;4.75;1.38;;;;;;;14.71;57.73;96447.22;5093771;28;20024;-48
2023/11/05 08:58:49;;;;;;;2.33;0.93;;;;;;;14.81;57.29;96440.22;5095060;28;20541;-49
2023/11/05 09:01:18;;;;;;;2.97;1.30;;;;;;;14.84;55.82;96464.22;5093999;28;20107;-49
2023/11/05 09:03:45;;;;;;;2.95;1.10;;;;;;;14.74;55.63;96474.91;5093699;28;20106;-48
2023/11/05 09:06:11;;;;;;;1.48;0.70;;;;;;;14.69;57.02;96493.44;5094882;28;20027;-49
2023/11/05 09:08:40;;;;;;;1.63;0.80;;;;;;;14.70;55.81;96493.16;5094892;28;20103;-48
2023/11/05 09:11:11;;;;;;;7.07;2.05;;;;;;;14.68;56.67;96492.66;5094760;28;20024;-48
2023/11/05 09:13:37;;;;;;;2.80;0.88;;;;;;;14.71;57.33;96499.25;5095086;28;20493;-48
2023/11/05 09:16:06;;;;;;;3.15;1.38;;;;;;;14.83;57.86;96507.56;5093439;28;20061;-48
2023/11/05 09:18:32;;;;;;;1.90;0.82;;;;;;;15.01;56.79;96513.16;5093311;28;20044;-48
2023/11/05 09:20:59;;;;;;;4.40;1.10;;;;;;;15.14;56.79;96525.69;5094631;28;20024;-48
2023/11/05 09:23:25;;;;;;;3.90;1.10;;;;;;;15.24;56.48;96530.84;5094540;28;20438;-48
2023/11/05 09:25:52;;;;;;;6.68;1.20;;;;;;;15.45;57.84;96527.94;5094571;28;20463;-48
2023/11/05 09:28:18;;;;;;;3.22;0.80;;;;;;;15.58;56.09;96545.75;5094468;28;20059;-48
2023/11/05 09:30:45;;;;;;;7.38;1.00;;;;;;;15.61;55.43;96533.81;5094397;28;20028;-49
2023/11/05 09:33:12;;;;;;;2.58;0.85;;;;;;;15.70;54.77;96540.03;5094351;28;20494;-48
2023/11/05 09:35:37;;;;;;;4.30;0.95;;;;;;;15.85;53.28;96561.00;5094368;28;20066;-49
2023/11/05 09:38:03;;;;;;;4.45;1.25;;;;;;;15.85;54.40;96561.00;5094309;28;20028;-48
2023/11/05 09:40:33;;;;;;;4.22;1.38;;;;;;;15.92;54.34;96565.94;5092901;28;20028;-48
2023/11/05 09:43:02;;;;;;;4.22;1.95;;;;;;;15.89;53.58;96561.22;5094299;28;20023;-49
2023/11/05 09:45:31;;;;;;;3.00;1.10;;;;;;;15.82;52.52;96566.09;5094355;28;20032;-48
2023/11/05 09:47:58;;;;;;;3.33;0.80;;;;;;;15.69;52.67;96581.53;5094117;28;20023;-48
2023/11/05 09:50:24;;;;;;;2.75;1.00;;;;;;;15.59;53.61;96589.59;5093006;28;20028;-48
2023/11/05 09:52:52;;;;;;;3.25;0.88;;;;;;;15.56;54.59;96584.91;5092877;28;20055;-49
2023/11/05 09:55:18;;;;;;;2.15;0.77;;;;;;;15.63;54.28;96601.19;5093888;28;20055;-48
2023/11/05 09:57:44;;;;;;;2.55;0.90;;;;;;;15.63;53.79;96600.41;5075801;28;20024;-49
2023/11/05 10:00:11;;;;;;;3.72;0.98;;;;;;;15.60;53.26;96607.06;5093911;28;20093;-48
2023/11/05 10:02:57;;;;;;;4.00;1.65;;;;;;;15.66;54.00;96624.44;5093752;28;20446;-48
2023/11/05 10:05:23;;;;;;;;;;;;;;;15.65;53.50;96617.56;5092933;28;20387;-48
2023/11/05 10:07:50;;;;;;;1.33;0.52;;;;;;;15.65;53.11;96617.56;5092490;28;20365;-48
2023/11/05 10:10:16;;;;;;;1.70;1.00;;;;;;;15.52;52.90;96621.69;5093644;28;20027;-48
2023/11/05 10:12:42;;;;;;;4.78;0.90;;;;;;;15.28;54.23;96642.84;5092576;28;20134;-48
2023/11/05 10:15:08;;;;;;;2.33;0.80;;;;;;;15.21;54.70;96641.59;5093531;28;20489;-48
2023/11/05 10:17:33;;;;;;;5.85;1.13;;;;;;;15.21;55.92;96660.88;5093258;28;20521;-48
2023/11/05 10:19:59;;;;;;;1.77;0.68;;;;;;;15.25;55.10;96654.00;5092270;28;20052;-48
2023/11/05 10:22:25;;;;;;;3.60;0.98;;;;;;;15.21;54.70;96668.78;5092057;28;20424;-49
2023/11/05 10:24:51;;;;;;;4.55;1.90;;;;;;;15.15;55.18;96665.44;5092108;28;20455;-48
2023/11/05 10:27:27;;;;;;;2.97;1.60;;;;;;;15.18;55.50;96664.09;5093554;28;20035;-48
2023/11/05 10:29:57;;;;;;;3.15;2.55;;;;;;;15.27;55.06;96654.50;5093367;28;20502;-49
2023/11/05 10:32:23;;;;;;;4.07;1.70;;;;;;;15.38;55.09;96658.59;5093581;28;20088;-48
2023/11/05 10:34:51;;;;;;;21.33;11.57;;;;;;;15.65;55.37;96674.94;5075182;28;20040;-48
2023/11/05 10:37:17;;;;;;;5.85;5.05;;;;;;;15.64;54.11;96676.81;5093124;28;20397;-49
2023/11/05 10:39:43;;;;;;;10.45;8.23;;;;;;;15.52;54.41;96663.22;5093086;28;20059;-48
2023/11/05 10:42:12;;;;;;;6.07;4.22;;;;;;;15.41;54.14;96688.94;5092976;28;20047;-48
2023/11/05 10:44:45;;;;;;;3.97;2.67;;;;;;;15.26;54.60;96697.81;5093072;28;20028;-49
2023/11/05 10:47:12;;;;;;;3.88;1.48;;;;;;;15.29;54.74;96701.75;5092901;28;20086;-48
2023/11/05 10:49:43;;;;;;;5.90;2.85;;;;;;;15.42;54.33;96698.47;5092929;28;20028;-49
2023/11/05 10:52:12;;;;;;;15.38;9.45;;;;;;;15.48;54.15;96715.06;5092787;28;20091;-48
2023/11/05 10:54:37;;;;;;;3.85;2.80;;;;;;;15.51;53.97;96717.13;5092284;28;20024;-48
2023/11/05 10:57:43;;;;;;;6.57;1.88;;;;;;;15.53;54.14;96710.53;5091425;28;20060;-49
2023/11/05 11:00:29;;;;;;;4.85;1.20;;;;;;;15.60;54.34;96714.69;5092701;28;20024;-48
2023/11/05 11:02:56;;;;;;;;;;;;;;;15.66;53.63;96732.84;5092877;28;20028;-48
2023/11/05 11:05:42;;;;;;;2.80;0.90;;;;;;;15.64;53.93;96740.28;5092646;28;19916;-48
2023/11/05 11:08:12;;;;;;;4.65;2.30;;;;;;;15.62;53.86;96737.13;5077540;28;20063;-49
2023/11/05 11:10:43;;;;;;;4.32;3.28;;;;;;;15.63;54.23;96732.63;5092491;28;20028;-48
2023/11/05 11:13:17;;;;;;;6.43;1.77;;;;;;;15.69;54.06;96737.56;5092559;28;20026;-48
2023/11/05 11:15:53;;;;;;;3.30;1.08;;;;;;;15.67;53.95;96728.34;5092754;28;20393;-49
2023/11/05 11:18:20;;;;;;;2.65;0.70;;;;;;;15.75;53.51;96733.03;5090929;28;20530;-48
2023/11/05 11:20:52;;;;;;;3.92;0.93;;;;;;;15.71;53.51;96740.72;5092325;28;20027;-49
2023/11/05 11:23:19;;;;;;;4.07;1.00;;;;;;;15.75;53.83;96738.34;5092568;28;20027;-48
2023/11/05 11:26:05;;;;;;;5.53;2.85;;;;;;;15.86;53.72;96752.25;5092273;28;20108;-48
2023/11/05 11:28:33;;;;;;;1.88;0.85;;;;;;;15.93;53.05;96765.91;5091004;28;20082;-48
2023/11/05 11:31:00;;;;;;;2.38;0.80;;;;;;;15.94;52.89;96759.56;5090887;28;20031;-48
2023/11/05 11:33:29;;;;;;;1.45;0.55;;;;;;;15.96;53.54;96760.84;5090861;28;20089;-48